»·PEaware :: N906JD KLNK-KSTJ

N906JD :: KLNK-KSTJ

FLIGHT INFORMATION

Flight Status: Arrived
Operator: Privately registered:
United States
More flights under this callsign
Pilot: Greg V. (3520)
Aircraft: BEECH AIRCRAFT BEECH AIRLINER
(B190)
More flights by this aircraft type
Origin: KLNK Lincoln Mun
United States
Destination: KSTJ Rosecrans Meml
United States
More flights between these airports :: More routes between these airports
Route:
File this flight plan on PilotEdge
Remarks:
Altitude:
(Current/Filed)
7,500ft
Speed:
(Current/Filed)
230kts
Departed: 05-Apr-15 11:28 AM
Arrived: 05-Apr-15 12:34 PM
Distance/Time
Traveled:
107nm/1:06
Distance/Time
To Go:
Arrived

Flight Plot

Page will automatically refresh every two minutes.


Map Options




Map Legend


Flown Route
Filed Route
Departure Airport
Arrival Airport
Navaid (VOR, NDB)
Fix

Horizontal Profiles

Position Reports

Time Latitude Longitude Heading Altitude Ground
Speed
05-Apr-15 11:20 40.850124 -96.748476 180 1224ft 0kts
05-Apr-15 11:21 40.850124 -96.748476 180 1224ft 0kts
05-Apr-15 11:22 40.850124 -96.748476 180 1224ft 0kts
05-Apr-15 11:23 40.850112 -96.748476 180 1224ft 0kts
05-Apr-15 11:24 40.849641 -96.749115 268 1224ft 6kts
05-Apr-15 11:25 40.854703 -96.749555 1 1224ft 29kts
05-Apr-15 11:26 40.861289 -96.749993 291 1224ft 8kts
05-Apr-15 11:27 40.847960 -96.750838 180 1400ft 140kts
05-Apr-15 11:28 40.819964 -96.720031 120 2698ft 191kts
05-Apr-15 11:29 40.795167 -96.664305 129 4072ft 196kts
05-Apr-15 11:30 40.763945 -96.606331 131 5540ft 194kts
05-Apr-15 11:31 40.731767 -96.549249 133 7038ft 195kts
05-Apr-15 11:32 40.696499 -96.487661 132 7435ft 231kts
05-Apr-15 11:33 40.656507 -96.417663 132 7435ft 248kts
05-Apr-15 11:34 40.614587 -96.344531 132 7445ft 254kts
05-Apr-15 11:35 40.571614 -96.269759 132 7453ft 259kts
05-Apr-15 11:36 40.527941 -96.193969 132 7459ft 262kts
05-Apr-15 11:37 40.483830 -96.117632 132 7459ft 264kts
05-Apr-15 11:38 40.441271 -96.044196 132 7463ft 265kts
05-Apr-15 11:39 40.400223 -95.973521 132 7465ft 265kts
05-Apr-15 11:40 40.360478 -95.905240 132 7467ft 263kts
05-Apr-15 11:41 40.322461 -95.839451 132 7478ft 260kts
05-Apr-15 11:42 40.282203 -95.770398 132 7490ft 257kts
05-Apr-15 11:43 40.250041 -95.715430 132 7485ft 255kts
05-Apr-15 11:44 40.210774 -95.645163 129 6439ft 274kts
05-Apr-15 11:45 40.162814 -95.571520 175 2181ft 310kts
05-Apr-15 11:46 40.199933 -95.631499 127 1005ft 0kts
05-Apr-15 11:47 40.199938 -95.631526 124 1005ft 0kts
05-Apr-15 11:48 40.199938 -95.631526 124 1005ft 0kts
05-Apr-15 12:00 40.861186 -96.750739 181 1224ft 0kts
05-Apr-15 12:01 40.861186 -96.750739 181 1224ft 0kts
05-Apr-15 12:02 40.837289 -96.750793 181 1836ft 158kts
05-Apr-15 12:03 40.812449 -96.708586 119 3548ft 182kts
05-Apr-15 12:04 40.788151 -96.652578 129 5298ft 184kts
05-Apr-15 12:05 40.758672 -96.597461 132 7088ft 185kts
05-Apr-15 12:06 40.724175 -96.536495 131 7435ft 231kts
05-Apr-15 12:07 40.683709 -96.465383 131 7430ft 248kts
05-Apr-15 12:08 40.641727 -96.391864 132 7437ft 253kts
05-Apr-15 12:09 40.598849 -96.317204 132 7446ft 260kts
05-Apr-15 12:10 40.554712 -96.240527 132 7455ft 265kts
05-Apr-15 12:11 40.509843 -96.162794 132 7458ft 267kts
05-Apr-15 12:12 40.472488 -96.098229 132 7458ft 267kts
05-Apr-15 12:13 40.429301 -96.023657 132 7464ft 268kts
05-Apr-15 12:14 40.383918 -95.945573 132 7467ft 268kts
05-Apr-15 12:15 40.339305 -95.868696 132 7475ft 264kts
05-Apr-15 12:16 40.295580 -95.793357 132 7456ft 260kts
05-Apr-15 12:17 40.251885 -95.718642 132 7459ft 256kts
05-Apr-15 12:18 40.208892 -95.645304 132 7467ft 254kts
05-Apr-15 12:19 40.167242 -95.573411 126 7035ft 248kts
05-Apr-15 12:20 40.133800 -95.499513 124 5792ft 225kts
05-Apr-15 12:21 40.103361 -95.431014 124 4690ft 212kts
05-Apr-15 12:22 40.074958 -95.366568 124 3773ft 202kts
05-Apr-15 12:23 40.047274 -95.303336 124 3018ft 202kts
05-Apr-15 12:24 40.017371 -95.240296 126 2485ft 205kts
05-Apr-15 12:25 39.987890 -95.178807 127 2480ft 205kts
05-Apr-15 12:26 39.957762 -95.115840 126 2495ft 210kts
05-Apr-15 12:27 39.927989 -95.050125 123 2504ft 211kts
05-Apr-15 12:28 39.900472 -94.985769 123 1937ft 200kts
05-Apr-15 12:29 39.876193 -94.927773 123 1839ft 153kts
05-Apr-15 12:30 39.849551 -94.906159 185 1796ft 106kts
05-Apr-15 12:31 39.820118 -94.906822 182 1500ft 110kts
05-Apr-15 12:32 39.792095 -94.906858 183 943ft 97kts
05-Apr-15 12:33 39.777081 -94.906687 124 831ft 10kts
05-Apr-15 12:34 39.774395 -94.905203 167 831ft 15kts
05-Apr-15 12:35 39.773625 -94.904117 178 831ft 0kts
05-Apr-15 12:36 39.773625 -94.904117 178 831ft 0kts
05-Apr-15 12:37 39.773625 -94.904117 178 831ft 0kts
05-Apr-15 12:38 39.773625 -94.904117 178 831ft 0kts
05-Apr-15 12:39 39.775404 -94.905201 1 831ft 17kts

Navigation Log

Ident Type
Flight plan parsing failed, navigation log unavailable